sensor_id;sensor_type;location;lat;lon;timestamp;pressure;altitude;pressure_sealevel;temperature;humidity
30714;BME280;17465;47.934;33.430;2023-02-19T00:02:19;57369.62;;;-140.43;72.92
30714;BME280;17465;47.934;33.430;2023-02-19T00:04:50;57342.08;;;-140.43;73.30
30714;BME280;17465;47.934;33.430;2023-02-19T00:07:20;57342.08;;;-140.43;73.30
30714;BME280;17465;47.934;33.430;2023-02-19T00:09:51;57342.08;;;-140.43;73.54
30714;BME280;17465;47.934;33.430;2023-02-19T00:12:22;57359.03;;;-140.43;72.33
30714;BME280;17465;47.934;33.430;2023-02-19T00:14:52;57360.08;;;-140.43;72.14
30714;BME280;17465;47.934;33.430;2023-02-19T00:17:23;57360.08;;;-140.43;72.14
30714;BME280;17465;47.934;33.430;2023-02-19T00:19:54;57348.43;;;-140.43;71.96
30714;BME280;17465;47.934;33.430;2023-02-19T00:22:24;57354.79;;;-140.43;72.21
30714;BME280;17465;47.934;33.430;2023-02-19T00:24:56;57367.50;;;-140.43;72.65
30714;BME280;17465;47.934;33.430;2023-02-19T00:27:28;57371.73;;;-140.43;72.80
30714;BME280;17465;47.934;33.430;2023-02-19T00:29:59;57359.03;;;-140.43;72.23
30714;BME280;17465;47.934;33.430;2023-02-19T00:32:30;57359.03;;;-140.43;72.23
30714;BME280;17465;47.934;33.430;2023-02-19T00:35:01;57352.67;;;-140.43;72.33
30714;BME280;17465;47.934;33.430;2023-02-19T00:37:32;57363.26;;;-140.43;72.45
30714;BME280;17465;47.934;33.430;2023-02-19T00:40:02;57374.91;;;-140.43;72.85
30714;BME280;17465;47.934;33.430;2023-02-19T00:42:33;57381.27;;;-140.43;73.90
30714;BME280;17465;47.934;33.430;2023-02-19T00:45:04;57367.50;;;-140.43;74.15
30714;BME280;17465;47.934;33.430;2023-02-19T00:47:34;57352.67;;;-140.43;75.05
30714;BME280;17465;47.934;33.430;2023-02-19T00:50:05;57371.73;;;-140.43;75.14
30714;BME280;17465;47.934;33.430;2023-02-19T00:52:35;57379.15;;;-140.43;75.75
30714;BME280;17465;47.934;33.430;2023-02-19T00:55:06;57362.20;;;-140.43;75.99
30714;BME280;17465;47.934;33.430;2023-02-19T00:57:38;57374.91;;;-140.43;75.91
30714;BME280;17465;47.934;33.430;2023-02-19T01:00:09;57374.91;;;-140.43;75.91
30714;BME280;17465;47.934;33.430;2023-02-19T01:02:40;57375.97;;;-140.43;76.40
30714;BME280;17465;47.934;33.430;2023-02-19T01:05:11;57367.50;;;-140.43;76.94
30714;BME280;17465;47.934;33.430;2023-02-19T01:07:42;57359.03;;;-140.43;76.47
30714;BME280;17465;47.934;33.430;2023-02-19T01:10:13;57366.44;;;-140.43;76.36
30714;BME280;17465;47.934;33.430;2023-02-19T01:12:43;57354.79;;;-140.43;76.59
30714;BME280;17465;47.934;33.430;2023-02-19T01:15:14;57371.73;;;-140.43;75.79
30714;BME280;17465;47.934;33.430;2023-02-19T01:17:44;57351.61;;;-140.43;76.04
30714;BME280;17465;47.934;33.430;2023-02-19T01:20:15;57389.74;;;-140.43;75.60
30714;BME280;17465;47.934;33.430;2023-02-19T01:22:45;57364.32;;;-140.43;76.67
30714;BME280;17465;47.934;33.430;2023-02-19T01:25:16;57364.32;;;-140.43;76.67
30714;BME280;17465;47.934;33.430;2023-02-19T01:27:46;57364.32;;;-140.43;76.63
30714;BME280;17465;47.934;33.430;2023-02-19T01:30:18;57369.62;;;-140.43;76.86
30714;BME280;17465;47.934;33.430;2023-02-19T01:32:48;57383.38;;;-140.43;77.94
30714;BME280;17465;47.934;33.430;2023-02-19T01:35:20;57370.68;;;-140.43;77.23
30714;BME280;17465;47.934;33.430;2023-02-19T01:37:50;57370.68;;;-140.43;77.23
30714;BME280;17465;47.934;33.430;2023-02-19T01:40:22;57368.55;;;-140.43;77.07
30714;BME280;17465;47.934;33.430;2023-02-19T01:42:52;57392.91;;;-140.43;76.37
30714;BME280;17465;47.934;33.430;2023-02-19T01:45:31;57373.85;;;-140.43;77.02
30714;BME280;17465;47.934;33.430;2023-02-19T01:51:06;57368.55;;;-140.43;76.82
30714;BME280;17465;47.934;33.430;2023-02-19T01:53:46;57350.55;;;-140.43;77.08
30714;BME280;17465;47.934;33.430;2023-02-19T01:56:20;57350.55;;;-140.43;77.08
30714;BME280;17465;47.934;33.430;2023-02-19T01:58:52;57333.61;;;-140.43;76.31
30714;BME280;17465;47.934;33.430;2023-02-19T02:01:22;57353.73;;;-140.43;75.63
30714;BME280;17465;47.934;33.430;2023-02-19T02:03:53;57353.73;;;-140.43;75.63
30714;BME280;17465;47.934;33.430;2023-02-19T02:06:32;57365.38;;;-140.43;77.00
30714;BME280;17465;47.934;33.430;2023-02-19T02:08:58;57365.38;;;-140.43;77.00
30714;BME280;17465;47.934;33.430;2023-02-19T02:11:28;57349.49;;;-140.43;76.20
30714;BME280;17465;47.934;33.430;2023-02-19T02:14:00;57356.91;;;-140.43;76.04
30714;BME280;17465;47.934;33.430;2023-02-19T02:30:57;57354.79;;;-140.43;78.15
30714;BME280;17465;47.934;33.430;2023-02-19T02:39:12;57377.03;;;-140.43;80.93
30714;BME280;17465;47.934;33.430;2023-02-19T02:41:44;57362.20;;;-140.43;81.71
30714;BME280;17465;47.934;33.430;2023-02-19T02:44:15;57357.96;;;-140.43;81.33
30714;BME280;17465;47.934;33.430;2023-02-19T02:46:47;57380.21;;;-140.43;79.95
30714;BME280;17465;47.934;33.430;2023-02-19T02:49:20;57380.21;;;-140.43;79.95
30714;BME280;17465;47.934;33.430;2023-02-19T02:51:53;57343.14;;;-140.43;80.57
30714;BME280;17465;47.934;33.430;2023-02-19T02:57:23;57353.73;;;-140.43;82.06
30714;BME280;17465;47.934;33.430;2023-02-19T02:59:54;57385.50;;;-140.43;82.48
30714;BME280;17465;47.934;33.430;2023-02-19T03:02:27;57360.08;;;-140.43;84.20
30714;BME280;17465;47.934;33.430;2023-02-19T03:10:46;57359.03;;;-140.43;84.80
30714;BME280;17465;47.934;33.430;2023-02-19T03:13:21;57355.85;;;-140.43;84.94
30714;BME280;17465;47.934;33.430;2023-02-19T03:18:47;57366.44;;;-140.43;82.72
30714;BME280;17465;47.934;33.430;2023-02-19T03:21:19;57361.14;;;-140.43;82.08
30714;BME280;17465;47.934;33.430;2023-02-19T03:23:55;57352.67;;;-140.43;82.48
30714;BME280;17465;47.934;33.430;2023-02-19T03:26:27;57392.91;;;-140.43;82.55
30714;BME280;17465;47.934;33.430;2023-02-19T03:28:58;57392.91;;;-140.43;82.55
30714;BME280;17465;47.934;33.430;2023-02-19T03:31:32;57362.20;;;-140.43;81.13
30714;BME280;17465;47.934;33.430;2023-02-19T03:34:06;57416.21;;;-140.43;81.50
30714;BME280;17465;47.934;33.430;2023-02-19T03:36:45;57356.91;;;-140.43;81.10
30714;BME280;17465;47.934;33.430;2023-02-19T03:39:19;57357.96;;;-140.43;81.80
30714;BME280;17465;47.934;33.430;2023-02-19T03:47:26;57364.32;;;-140.43;82.08
30714;BME280;17465;47.934;33.430;2023-02-19T03:56:17;57375.97;;;-140.43;82.90
30714;BME280;17465;47.934;33.430;2023-02-19T03:58:50;57383.38;;;-140.43;83.79
30714;BME280;17465;47.934;33.430;2023-02-19T04:01:48;57380.21;;;-140.43;84.41
30714;BME280;17465;47.934;33.430;2023-02-19T04:04:30;57366.44;;;-140.43;84.90
30714;BME280;17465;47.934;33.430;2023-02-19T04:07:00;57382.32;;;-140.43;85.26
30714;BME280;17465;47.934;33.430;2023-02-19T04:09:47;57348.43;;;-140.43;85.69
30714;BME280;17465;47.934;33.430;2023-02-19T04:12:18;57375.97;;;-140.43;86.43
30714;BME280;17465;47.934;33.430;2023-02-19T04:14:53;57375.97;;;-140.43;86.43
30714;BME280;17465;47.934;33.430;2023-02-19T04:20:16;57352.67;;;-140.43;88.42
30714;BME280;17465;47.934;33.430;2023-02-19T04:22:50;57362.20;;;-140.43;88.47
30714;BME280;17465;47.934;33.430;2023-02-19T04:25:22;57362.20;;;-140.43;88.47
30714;BME280;17465;47.934;33.430;2023-02-19T04:27:54;57387.62;;;-140.43;88.67
30714;BME280;17465;47.934;33.430;2023-02-19T04:30:25;57371.73;;;-140.43;90.02
30714;BME280;17465;47.934;33.430;2023-02-19T04:32:55;57361.14;;;-140.43;90.41
30714;BME280;17465;47.934;33.430;2023-02-19T04:35:26;57361.14;;;-140.43;90.41
30714;BME280;17465;47.934;33.430;2023-02-19T04:37:59;57343.14;;;-140.43;91.07
30714;BME280;17465;47.934;33.430;2023-02-19T04:40:30;57339.96;;;-140.43;90.67
30714;BME280;17465;47.934;33.430;2023-02-19T04:43:01;57370.68;;;-140.43;90.89
30714;BME280;17465;47.934;33.430;2023-02-19T04:45:31;57370.68;;;-140.43;92.28
30714;BME280;17465;47.934;33.430;2023-02-19T04:48:02;57377.03;;;-140.43;92.70
30714;BME280;17465;47.934;33.430;2023-02-19T04:50:33;57381.27;;;-140.43;92.70
30714;BME280;17465;47.934;33.430;2023-02-19T04:53:05;57381.27;;;-140.43;92.70
30714;BME280;17465;47.934;33.430;2023-02-19T04:55:39;57352.67;;;-140.43;92.90
30714;BME280;17465;47.934;33.430;2023-02-19T04:58:09;57367.50;;;-140.43;93.77
30714;BME280;17465;47.934;33.430;2023-02-19T05:00:41;57356.91;;;-140.43;94.70
30714;BME280;17465;47.934;33.430;2023-02-19T05:03:12;57356.91;;;-140.43;94.70
30714;BME280;17465;47.934;33.430;2023-02-19T05:05:42;57372.79;;;-140.43;94.37
30714;BME280;17465;47.934;33.430;2023-02-19T05:08:14;57365.38;;;-140.43;92.76
30714;BME280;17465;47.934;33.430;2023-02-19T05:10:44;57356.91;;;-140.43;94.70
30714;BME280;17465;47.934;33.430;2023-02-19T05:13:15;57338.90;;;-140.43;94.71
30714;BME280;17465;47.934;33.430;2023-02-19T05:15:54;57362.20;;;-140.43;93.17
30714;BME280;17465;47.934;33.430;2023-02-19T05:18:25;57362.20;;;-140.43;93.17
30714;BME280;17465;47.934;33.430;2023-02-19T05:20:57;57359.03;;;-140.43;95.90
30714;BME280;17465;47.934;33.430;2023-02-19T05:23:29;57348.43;;;-140.43;96.15
30714;BME280;17465;47.934;33.430;2023-02-19T05:26:07;57348.43;;;-140.43;96.15
30714;BME280;17465;47.934;33.430;2023-02-19T05:28:38;57343.14;;;-140.43;95.79
30714;BME280;17465;47.934;33.430;2023-02-19T05:31:11;57385.50;;;-140.43;95.84
30714;BME280;17465;47.934;33.430;2023-02-19T05:33:42;57368.55;;;-140.43;97.05
30714;BME280;17465;47.934;33.430;2023-02-19T05:36:13;57366.44;;;-140.43;96.77
30714;BME280;17465;47.934;33.430;2023-02-19T05:38:44;57361.14;;;-140.43;96.08
30714;BME280;17465;47.934;33.430;2023-02-19T05:41:17;57361.14;;;-140.43;96.08
30714;BME280;17465;47.934;33.430;2023-02-19T05:43:48;57385.50;;;-140.43;95.29
30714;BME280;17465;47.934;33.430;2023-02-19T05:46:22;57366.44;;;-140.43;95.54
30714;BME280;17465;47.934;33.430;2023-02-19T05:48:53;57357.96;;;-140.43;95.72
30714;BME280;17465;47.934;33.430;2023-02-19T05:51:25;57375.97;;;-140.43;96.63
30714;BME280;17465;47.934;33.430;2023-02-19T05:53:57;57343.14;;;-140.43;96.53
30714;BME280;17465;47.934;33.430;2023-02-19T05:59:04;57352.67;;;-140.43;96.08
30714;BME280;17465;47.934;33.430;2023-02-19T06:01:35;57359.03;;;-140.43;95.58
30714;BME280;17465;47.934;33.430;2023-02-19T06:04:06;57359.03;;;-140.43;95.25
30714;BME280;17465;47.934;33.430;2023-02-19T06:06:36;57349.49;;;-140.43;94.78
30714;BME280;17465;47.934;33.430;2023-02-19T06:09:08;57366.44;;;-140.43;93.64
30714;BME280;17465;47.934;33.430;2023-02-19T06:11:40;57349.49;;;-140.43;92.68
30714;BME280;17465;47.934;33.430;2023-02-19T06:14:14;57349.49;;;-140.43;92.68
30714;BME280;17465;47.934;33.430;2023-02-19T06:16:45;57362.20;;;-140.43;90.79
30714;BME280;17465;47.934;33.430;2023-02-19T06:19:16;57362.20;;;-140.43;90.79
30714;BME280;17465;47.934;33.430;2023-02-19T06:21:50;57346.32;;;-140.43;92.74
30714;BME280;17465;47.934;33.430;2023-02-19T06:24:21;57335.73;;;-140.43;91.44
30714;BME280;17465;47.934;33.430;2023-02-19T06:26:52;57367.50;;;-140.43;90.66
30714;BME280;17465;47.934;33.430;2023-02-19T06:29:22;57335.73;;;-140.43;89.27
30714;BME280;17465;47.934;33.430;2023-02-19T06:31:53;57342.08;;;-140.43;89.43
30714;BME280;17465;47.934;33.430;2023-02-19T06:34:24;57368.55;;;-140.43;88.08
30714;BME280;17465;47.934;33.430;2023-02-19T06:36:55;57335.73;;;-140.43;89.68
30714;BME280;17465;47.934;33.430;2023-02-19T06:39:27;57335.73;;;-140.43;89.68
30714;BME280;17465;47.934;33.430;2023-02-19T06:41:58;57367.50;;;-140.43;89.89
30714;BME280;17465;47.934;33.430;2023-02-19T06:44:29;57347.38;;;-140.43;89.40
30714;BME280;17465;47.934;33.430;2023-02-19T06:47:03;57345.26;;;-140.43;90.55
30714;BME280;17465;47.934;33.430;2023-02-19T06:49:34;57368.55;;;-140.43;88.36
30714;BME280;17465;47.934;33.430;2023-02-19T06:52:06;57333.61;;;-140.43;91.07
30714;BME280;17465;47.934;33.430;2023-02-19T06:54:37;57349.49;;;-140.43;89.89
30714;BME280;17465;47.934;33.430;2023-02-19T06:57:08;57348.43;;;-140.43;90.44
30714;BME280;17465;47.934;33.430;2023-02-19T06:59:39;57323.02;;;-140.43;89.82
30714;BME280;17465;47.934;33.430;2023-02-19T07:02:13;57342.08;;;-140.43;89.93
30714;BME280;17465;47.934;33.430;2023-02-19T07:04:44;57317.72;;;-140.43;91.50
30714;BME280;17465;47.934;33.430;2023-02-19T07:07:15;57363.26;;;-140.43;90.75
30714;BME280;17465;47.934;33.430;2023-02-19T07:09:47;57335.73;;;-140.43;89.94
30714;BME280;17465;47.934;33.430;2023-02-19T07:12:18;57350.55;;;-140.43;87.73
30714;BME280;17465;47.934;33.430;2023-02-19T07:14:49;57319.84;;;-140.43;83.54
30714;BME280;17465;47.934;33.430;2023-02-19T07:17:20;57315.61;;;-140.43;82.21
30714;BME280;17465;47.934;33.430;2023-02-19T07:19:50;57351.61;;;-140.43;80.81
30714;BME280;17465;47.934;33.430;2023-02-19T07:22:24;57351.61;;;-140.43;80.81
30714;BME280;17465;47.934;33.430;2023-02-19T07:24:55;57325.14;;;-140.43;80.09
30714;BME280;17465;47.934;33.430;2023-02-19T07:27:25;57337.84;;;-140.43;79.19
30714;BME280;17465;47.934;33.430;2023-02-19T07:29:56;57307.13;;;-140.43;79.03
30714;BME280;17465;47.934;33.430;2023-02-19T07:32:30;57307.13;;;-140.43;79.03
30714;BME280;17465;47.934;33.430;2023-02-19T07:34:59;57335.73;;;-140.43;77.06
30714;BME280;17465;47.934;33.430;2023-02-19T07:37:33;57335.73;;;-140.43;77.06
30714;BME280;17465;47.934;33.430;2023-02-19T07:40:13;57342.08;;;-140.43;77.94
30714;BME280;17465;47.934;33.430;2023-02-19T07:42:44;57316.66;;;-140.43;76.52
30714;BME280;17465;47.934;33.430;2023-02-19T07:45:14;57324.07;;;-140.43;76.03
30714;BME280;17465;47.934;33.430;2023-02-19T07:47:50;57333.61;;;-140.43;75.13
30714;BME280;17465;47.934;33.430;2023-02-19T07:50:17;57333.61;;;-140.43;75.13
30714;BME280;17465;47.934;33.430;2023-02-19T07:52:48;57328.31;;;-140.43;72.92
30714;BME280;17465;47.934;33.430;2023-02-19T07:55:18;57325.14;;;-140.43;72.53
30714;BME280;17465;47.934;33.430;2023-02-19T07:57:49;57311.37;;;-140.43;71.11
30714;BME280;17465;47.934;33.430;2023-02-19T08:00:23;57342.08;;;-140.43;70.64
30714;BME280;17465;47.934;33.430;2023-02-19T08:02:53;57305.01;;;-140.43;71.31
30714;BME280;17465;47.934;33.430;2023-02-19T08:05:23;57298.66;;;-140.43;69.66
30714;BME280;17465;47.934;33.430;2023-02-19T08:07:54;57327.25;;;-140.43;67.63
30714;BME280;17465;47.934;33.430;2023-02-19T08:10:25;57335.73;;;-140.43;66.82
30714;BME280;17465;47.934;33.430;2023-02-19T08:13:04;57328.31;;;-140.43;63.77
30714;BME280;17465;47.934;33.430;2023-02-19T08:15:32;57336.79;;;-140.43;63.74
30714;BME280;17465;47.934;33.430;2023-02-19T08:18:03;57325.14;;;-140.43;61.09
30714;BME280;17465;47.934;33.430;2023-02-19T08:20:35;57318.78;;;-140.43;60.89
30714;BME280;17465;47.934;33.430;2023-02-19T08:23:06;57318.78;;;-140.43;60.89
30714;BME280;17465;47.934;33.430;2023-02-19T08:25:37;57328.31;;;-140.43;55.58
30714;BME280;17465;47.934;33.430;2023-02-19T08:28:11;57328.31;;;-140.43;55.58
30714;BME280;17465;47.934;33.430;2023-02-19T08:30:43;57341.02;;;-140.43;55.19
30714;BME280;17465;47.934;33.430;2023-02-19T08:33:17;57314.55;;;-140.43;56.22
30714;BME280;17465;47.934;33.430;2023-02-19T08:35:51;57339.96;;;-140.43;54.71
30714;BME280;17465;47.934;33.430;2023-02-19T08:38:21;57352.67;;;-140.43;51.50
30714;BME280;17465;47.934;33.430;2023-02-19T08:40:53;57350.55;;;-140.43;51.81
30714;BME280;17465;47.934;33.430;2023-02-19T08:43:26;57350.55;;;-140.43;51.81
30714;BME280;17465;47.934;33.430;2023-02-19T08:46:00;57343.14;;;-140.43;48.90
30714;BME280;17465;47.934;33.430;2023-02-19T08:48:37;57343.14;;;-140.43;48.90
30714;BME280;17465;47.934;33.430;2023-02-19T08:51:11;57362.20;;;-140.43;50.69
30714;BME280;17465;47.934;33.430;2023-02-19T08:53:43;57354.79;;;-140.43;52.26
30714;BME280;17465;47.934;33.430;2023-02-19T08:56:17;57354.79;;;-140.43;52.26
30714;BME280;17465;47.934;33.430;2023-02-19T08:58:53;57318.78;;;-140.43;49.96
30714;BME280;17465;47.934;33.430;2023-02-19T09:01:30;57353.73;;;-140.43;46.51
30714;BME280;17465;47.934;33.430;2023-02-19T09:04:01;57332.55;;;-140.43;49.66
30714;BME280;17465;47.934;33.430;2023-02-19T09:06:33;57332.55;;;-140.43;49.66
30714;BME280;17465;47.934;33.430;2023-02-19T09:09:04;57365.38;;;-140.43;46.06
30714;BME280;17465;47.934;33.430;2023-02-19T09:11:38;57365.38;;;-140.43;46.06
30714;BME280;17465;47.934;33.430;2023-02-19T09:14:08;57382.32;;;-140.43;47.46
30714;BME280;17465;47.934;33.430;2023-02-19T09:16:40;57341.02;;;-140.43;42.81
30714;BME280;17465;47.934;33.430;2023-02-19T09:19:11;57372.79;;;-140.43;44.75
30714;BME280;17465;47.934;33.430;2023-02-19T09:21:42;57372.79;;;-140.43;44.75
30714;BME280;17465;47.934;33.430;2023-02-19T09:24:12;57383.38;;;-140.43;43.68
30714;BME280;17465;47.934;33.430;2023-02-19T09:26:43;57383.38;;;-140.43;43.68
30714;BME280;17465;47.934;33.430;2023-02-19T09:29:28;57362.20;;;-140.43;43.04
30714;BME280;17465;47.934;33.430;2023-02-19T09:31:56;57357.96;;;-140.43;44.01
30714;BME280;17465;47.934;33.430;2023-02-19T09:34:27;57362.20;;;-140.43;45.70
30714;BME280;17465;47.934;33.430;2023-02-19T09:36:58;57356.91;;;-140.43;45.88
30714;BME280;17465;47.934;33.430;2023-02-19T09:39:29;57356.91;;;-140.43;45.88
30714;BME280;17465;47.934;33.430;2023-02-19T09:42:08;57367.50;;;-140.43;43.78
30714;BME280;17465;47.934;33.430;2023-02-19T09:44:38;57349.49;;;-140.43;44.88
30714;BME280;17465;47.934;33.430;2023-02-19T09:47:20;57392.91;;;-140.43;44.62
30714;BME280;17465;47.934;33.430;2023-02-19T09:49:54;57344.20;;;-140.43;46.52
30714;BME280;17465;47.934;33.430;2023-02-19T09:57:51;57342.08;;;-140.43;49.49
30714;BME280;17465;47.934;33.430;2023-02-19T10:00:35;57338.90;;;-140.43;51.39
30714;BME280;17465;47.934;33.430;2023-02-19T10:03:13;57338.90;;;-140.43;51.39
30714;BME280;17465;47.934;33.430;2023-02-19T10:05:43;57363.26;;;-140.43;52.35
30714;BME280;17465;47.934;33.430;2023-02-19T10:08:17;57342.08;;;-140.43;53.92
30714;BME280;17465;47.934;33.430;2023-02-19T10:10:47;57361.14;;;-140.43;53.19
30714;BME280;17465;47.934;33.430;2023-02-19T10:13:32;57361.14;;;-140.43;53.19
30714;BME280;17465;47.934;33.430;2023-02-19T10:16:03;57367.50;;;-140.43;53.43
30714;BME280;17465;47.934;33.430;2023-02-19T10:18:45;57348.43;;;-140.43;55.67
30714;BME280;17465;47.934;33.430;2023-02-19T10:21:26;57370.68;;;-140.43;58.89
30714;BME280;17465;47.934;33.430;2023-02-19T10:24:19;57359.03;;;-140.43;58.92
30714;BME280;17465;47.934;33.430;2023-02-19T10:26:49;57370.68;;;-140.43;57.53
30714;BME280;17465;47.934;33.430;2023-02-19T10:29:20;57335.73;;;-140.43;58.39
30714;BME280;17465;47.934;33.430;2023-02-19T10:32:11;57326.20;;;-140.43;57.55
30714;BME280;17465;47.934;33.430;2023-02-19T10:34:42;57326.20;;;-140.43;57.55
30714;BME280;17465;47.934;33.430;2023-02-19T10:37:15;57331.49;;;-140.43;56.35
30714;BME280;17465;47.934;33.430;2023-02-19T10:39:49;57334.67;;;-140.43;53.07
30714;BME280;17465;47.934;33.430;2023-02-19T10:42:21;57334.67;;;-140.43;53.07
30714;BME280;17465;47.934;33.430;2023-02-19T10:44:58;57326.20;;;-140.43;50.90
30714;BME280;17465;47.934;33.430;2023-02-19T10:47:30;57335.73;;;-140.43;52.31
30714;BME280;17465;47.934;33.430;2023-02-19T10:50:02;57335.73;;;-140.43;52.31
30714;BME280;17465;47.934;33.430;2023-02-19T10:52:34;57336.79;;;-140.43;49.70
30714;BME280;17465;47.934;33.430;2023-02-19T10:55:23;57338.90;;;-140.43;50.00
30714;BME280;17465;47.934;33.430;2023-02-19T10:57:47;57336.79;;;-140.43;46.76
30714;BME280;17465;47.934;33.430;2023-02-19T11:00:26;57325.14;;;-140.43;48.11
30714;BME280;17465;47.934;33.430;2023-02-19T11:03:19;57348.43;;;-140.43;48.32
30714;BME280;17465;47.934;33.430;2023-02-19T11:05:53;57331.49;;;-140.43;51.24
30714;BME280;17465;47.934;33.430;2023-02-19T11:08:24;57357.96;;;-140.43;51.37
30714;BME280;17465;47.934;33.430;2023-02-19T11:10:55;57357.96;;;-140.43;51.37
30714;BME280;17465;47.934;33.430;2023-02-19T11:13:28;57335.73;;;-140.43;52.91
30714;BME280;17465;47.934;33.430;2023-02-19T11:16:00;57330.43;;;-140.43;51.12
30714;BME280;17465;47.934;33.430;2023-02-19T11:18:33;57367.50;;;-140.43;52.96
30714;BME280;17465;47.934;33.430;2023-02-19T11:21:05;57338.90;;;-140.43;52.46
30714;BME280;17465;47.934;33.430;2023-02-19T11:23:46;57357.96;;;-140.43;52.17
30714;BME280;17465;47.934;33.430;2023-02-19T11:26:18;57370.68;;;-140.43;51.24
30714;BME280;17465;47.934;33.430;2023-02-19T11:29:01;57371.73;;;-140.43;49.42
30714;BME280;17465;47.934;33.430;2023-02-19T11:31:32;57328.31;;;-140.43;50.25
30714;BME280;17465;47.934;33.430;2023-02-19T11:37:08;57349.49;;;-140.43;51.01
30714;BME280;17465;47.934;33.430;2023-02-19T11:39:40;57342.08;;;-140.43;52.36
30714;BME280;17465;47.934;33.430;2023-02-19T11:53:34;57324.07;;;-140.43;51.87
30714;BME280;17465;47.934;33.430;2023-02-19T11:56:23;57347.38;;;-140.43;48.84
30714;BME280;17465;47.934;33.430;2023-02-19T11:59:00;57347.38;;;-140.43;48.84
30714;BME280;17465;47.934;33.430;2023-02-19T12:07:45;57327.25;;;-140.43;51.16
30714;BME280;17465;47.934;33.430;2023-02-19T12:22:23;57343.14;;;-140.43;55.86
30714;BME280;17465;47.934;33.430;2023-02-19T12:30:57;57326.20;;;-140.43;55.96
30714;BME280;17465;47.934;33.430;2023-02-19T12:33:41;57335.73;;;-140.43;55.04
30714;BME280;17465;47.934;33.430;2023-02-19T12:39:22;57318.78;;;-140.43;53.52
30714;BME280;17465;47.934;33.430;2023-02-19T12:47:23;57361.14;;;-140.43;55.90
30714;BME280;17465;47.934;33.430;2023-02-19T12:50:04;57329.37;;;-140.43;58.20
30714;BME280;17465;47.934;33.430;2023-02-19T12:52:40;57341.02;;;-140.43;56.18
30714;BME280;17465;47.934;33.430;2023-02-19T12:55:27;57343.14;;;-140.43;56.71
30714;BME280;17465;47.934;33.430;2023-02-19T12:58:01;57336.79;;;-140.43;56.36
30714;BME280;17465;47.934;33.430;2023-02-19T13:00:36;57344.20;;;-140.43;57.10
30714;BME280;17465;47.934;33.430;2023-02-19T13:03:31;57352.67;;;-140.43;57.01
30714;BME280;17465;47.934;33.430;2023-02-19T13:06:05;57353.73;;;-140.43;59.88
30714;BME280;17465;47.934;33.430;2023-02-19T13:08:47;57353.73;;;-140.43;59.88
30714;BME280;17465;47.934;33.430;2023-02-19T13:11:30;57336.79;;;-140.43;59.26
30714;BME280;17465;47.934;33.430;2023-02-19T13:14:13;57341.02;;;-140.43;60.26
30714;BME280;17465;47.934;33.430;2023-02-19T13:16:47;57379.15;;;-140.43;58.92
30714;BME280;17465;47.934;33.430;2023-02-19T13:19:19;57379.15;;;-140.43;60.68
30714;BME280;17465;47.934;33.430;2023-02-19T13:21:54;57379.15;;;-140.43;60.68
30714;BME280;17465;47.934;33.430;2023-02-19T13:24:29;57345.26;;;-140.43;62.53
30714;BME280;17465;47.934;33.430;2023-02-19T13:32:48;57346.32;;;-140.43;58.35
30714;BME280;17465;47.934;33.430;2023-02-19T13:38:08;57315.61;;;-140.43;56.83
30714;BME280;17465;47.934;33.430;2023-02-19T13:40:41;57335.73;;;-140.43;57.66
30714;BME280;17465;47.934;33.430;2023-02-19T13:43:35;57346.32;;;-140.43;58.96
30714;BME280;17465;47.934;33.430;2023-02-19T13:46:09;57351.61;;;-140.43;58.11
30714;BME280;17465;47.934;33.430;2023-02-19T13:48:38;57353.73;;;-140.43;57.74
30714;BME280;17465;47.934;33.430;2023-02-19T14:07:54;57351.61;;;-140.43;61.13
30714;BME280;17465;47.934;33.430;2023-02-19T14:10:52;56464.23;;;-140.43;61.07
30714;BME280;17465;47.934;33.430;2023-02-19T14:20:08;57339.96;;;-140.43;64.23
30714;BME280;17465;47.934;33.430;2023-02-19T14:21:53;57337.84;;;-140.43;63.96
30714;BME280;17465;47.934;33.430;2023-02-19T14:24:24;57337.84;;;-140.43;63.96
30714;BME280;17465;47.934;33.430;2023-02-19T14:26:56;57352.67;;;-140.43;65.66
30714;BME280;17465;47.934;33.430;2023-02-19T14:29:27;57359.03;;;-140.43;69.20
30714;BME280;17465;47.934;33.430;2023-02-19T14:31:58;57359.03;;;-140.43;69.20
30714;BME280;17465;47.934;33.430;2023-02-19T14:34:28;57352.67;;;-140.43;69.59
30714;BME280;17465;47.934;33.430;2023-02-19T14:37:00;57326.20;;;-140.43;69.09
30714;BME280;17465;47.934;33.430;2023-02-19T14:39:36;57362.20;;;-140.43;69.74
30714;BME280;17465;47.934;33.430;2023-02-19T14:42:26;57350.55;;;-140.43;69.67
30714;BME280;17465;47.934;33.430;2023-02-19T14:45:00;57350.55;;;-140.43;69.67
30714;BME280;17465;47.934;33.430;2023-02-19T14:47:32;57345.26;;;-140.43;69.73
30714;BME280;17465;47.934;33.430;2023-02-19T14:50:07;57350.55;;;-140.43;69.33
30714;BME280;17465;47.934;33.430;2023-02-19T14:52:42;57350.55;;;-140.43;70.15
30714;BME280;17465;47.934;33.430;2023-02-19T14:55:32;57343.14;;;-140.43;70.86
30714;BME280;17465;47.934;33.430;2023-02-19T14:58:09;57343.14;;;-140.43;70.86
30714;BME280;17465;47.934;33.430;2023-02-19T15:00:41;57363.26;;;-140.43;68.74
30714;BME280;17465;47.934;33.430;2023-02-19T15:06:27;57378.09;;;-140.43;68.19
30714;BME280;17465;47.934;33.430;2023-02-19T15:08:56;57360.08;;;-140.43;68.06
30714;BME280;17465;47.934;33.430;2023-02-19T15:11:36;57348.43;;;-140.43;68.31
30714;BME280;17465;47.934;33.430;2023-02-19T15:17:12;57370.68;;;-140.43;66.83
30714;BME280;17465;47.934;33.430;2023-02-19T15:23:41;57343.14;;;-140.43;67.68
30714;BME280;17465;47.934;33.430;2023-02-19T15:29:10;56517.17;;;-140.43;68.21
30714;BME280;17465;47.934;33.430;2023-02-19T15:31:54;57333.61;;;-140.43;68.20